Weather at Hiroshima Airport

Public forecast

Using degrees Celsius for public forecast. Weather courtesy of forecast.io.

Current aviation weather report (METAR) for Hiroshima Airport

2024/05/26 15:00 (retrieved 55 minutes ago)

RJOA 261500Z AUTO 27006KT 9999 -RA NSC 18/16 Q1009

Aviation forecast (TAF) for Hiroshima Airport

2024/05/26 12:30 (retrieved 3 hours ago)

TAF RJOA 261105Z 2612/2718 08005KT 7000 -SHRA FEW003 SCT008 BKN015 BECMG 2615/2617 3000 -SHRA BR BCFG FEW000 SCT005 BKN008 TEMPO 2617/2620 1500 SHRA BR BCFG FEW000 SCT003 BKN005 TEMPO 2620/2700 0700 -SHRA FG FEW000 SCT001 BKN003 BECMG 2700/2703 21007KT 8000 -SHRA FEW005 SCT010 BKN020